sensor_id;sensor_type;location;lat;lon;timestamp;temperature;humidity
7196;DHT22;3639;51.308;5.624;2022-08-01T00:01:57;19.80;99.90
7196;DHT22;3639;51.308;5.624;2022-08-01T00:04:23;19.80;99.90
7196;DHT22;3639;51.308;5.624;2022-08-01T00:06:49;19.80;99.90
7196;DHT22;3639;51.308;5.624;2022-08-01T00:09:15;19.80;99.90
7196;DHT22;3639;51.308;5.624;2022-08-01T00:11:41;19.80;99.90
7196;DHT22;3639;51.308;5.624;2022-08-01T00:14:07;19.80;99.90
7196;DHT22;3639;51.308;5.624;2022-08-01T00:16:35;19.90;99.90
7196;DHT22;3639;51.308;5.624;2022-08-01T00:19:01;19.80;99.90
7196;DHT22;3639;51.308;5.624;2022-08-01T00:21:27;19.80;99.90
7196;DHT22;3639;51.308;5.624;2022-08-01T00:23:53;19.90;99.90
7196;DHT22;3639;51.308;5.624;2022-08-01T00:26:19;19.90;99.90
7196;DHT22;3639;51.308;5.624;2022-08-01T00:28:45;19.90;99.90
7196;DHT22;3639;51.308;5.624;2022-08-01T00:31:11;19.90;99.90
7196;DHT22;3639;51.308;5.624;2022-08-01T00:33:37;19.80;99.90
7196;DHT22;3639;51.308;5.624;2022-08-01T00:36:03;19.80;99.90
7196;DHT22;3639;51.308;5.624;2022-08-01T00:38:29;19.80;99.90
7196;DHT22;3639;51.308;5.624;2022-08-01T00:40:55;19.80;99.90
7196;DHT22;3639;51.308;5.624;2022-08-01T00:43:21;19.80;99.90
7196;DHT22;3639;51.308;5.624;2022-08-01T00:45:47;19.80;99.90
7196;DHT22;3639;51.308;5.624;2022-08-01T00:48:13;19.80;99.90
7196;DHT22;3639;51.308;5.624;2022-08-01T00:50:38;19.70;99.90
7196;DHT22;3639;51.308;5.624;2022-08-01T00:53:05;19.70;99.90
7196;DHT22;3639;51.308;5.624;2022-08-01T00:55:31;19.70;99.90
7196;DHT22;3639;51.308;5.624;2022-08-01T00:57:58;19.70;99.90
7196;DHT22;3639;51.308;5.624;2022-08-01T01:00:25;19.70;99.90
7196;DHT22;3639;51.308;5.624;2022-08-01T01:02:51;19.70;99.90
7196;DHT22;3639;51.308;5.624;2022-08-01T01:05:17;19.70;99.90
7196;DHT22;3639;51.308;5.624;2022-08-01T01:10:32;19.70;99.90
7196;DHT22;3639;51.308;5.624;2022-08-01T01:13:20;19.70;99.90
7196;DHT22;3639;51.308;5.624;2022-08-01T01:15:59;19.70;99.90
7196;DHT22;3639;51.308;5.624;2022-08-01T01:18:33;19.70;99.90
7196;DHT22;3639;51.308;5.624;2022-08-01T01:26:52;19.70;99.90
7196;DHT22;3639;51.308;5.624;2022-08-01T01:29:32;19.60;99.90
7196;DHT22;3639;51.308;5.624;2022-08-01T01:32:23;19.60;99.90
7196;DHT22;3639;51.308;5.624;2022-08-01T01:34:54;19.50;99.90
7196;DHT22;3639;51.308;5.624;2022-08-01T01:37:22;19.50;99.90
7196;DHT22;3639;51.308;5.624;2022-08-01T01:39:51;19.50;99.90
7196;DHT22;3639;51.308;5.624;2022-08-01T01:42:18;19.50;99.90
7196;DHT22;3639;51.308;5.624;2022-08-01T01:44:46;19.50;99.90
7196;DHT22;3639;51.308;5.624;2022-08-01T01:47:14;19.50;99.90
7196;DHT22;3639;51.308;5.624;2022-08-01T01:49:44;19.50;99.90
7196;DHT22;3639;51.308;5.624;2022-08-01T01:52:13;19.50;99.90
7196;DHT22;3639;51.308;5.624;2022-08-01T01:54:44;19.50;99.90
7196;DHT22;3639;51.308;5.624;2022-08-01T01:57:12;19.50;99.90
7196;DHT22;3639;51.308;5.624;2022-08-01T01:59:39;19.40;99.90
7196;DHT22;3639;51.308;5.624;2022-08-01T02:02:07;19.50;99.90
7196;DHT22;3639;51.308;5.624;2022-08-01T02:04:36;19.40;99.90
7196;DHT22;3639;51.308;5.624;2022-08-01T02:07:05;19.40;99.90
7196;DHT22;3639;51.308;5.624;2022-08-01T02:09:34;19.40;99.90
7196;DHT22;3639;51.308;5.624;2022-08-01T02:12:02;19.50;99.90
7196;DHT22;3639;51.308;5.624;2022-08-01T02:14:29;19.50;99.90
7196;DHT22;3639;51.308;5.624;2022-08-01T02:16:57;19.50;99.90
7196;DHT22;3639;51.308;5.624;2022-08-01T02:19:23;19.50;99.90
7196;DHT22;3639;51.308;5.624;2022-08-01T02:21:59;19.50;99.90
7196;DHT22;3639;51.308;5.624;2022-08-01T02:27:09;19.50;99.90
7196;DHT22;3639;51.308;5.624;2022-08-01T02:30:04;19.50;99.90
7196;DHT22;3639;51.308;5.624;2022-08-01T02:32:41;19.50;99.90
7196;DHT22;3639;51.308;5.624;2022-08-01T02:35:13;19.50;99.90
7196;DHT22;3639;51.308;5.624;2022-08-01T02:37:41;19.50;99.90
7196;DHT22;3639;51.308;5.624;2022-08-01T02:40:09;19.50;99.90
7196;DHT22;3639;51.308;5.624;2022-08-01T02:42:37;19.50;99.90
7196;DHT22;3639;51.308;5.624;2022-08-01T02:45:05;19.50;99.90
7196;DHT22;3639;51.308;5.624;2022-08-01T02:47:34;19.50;99.90
7196;DHT22;3639;51.308;5.624;2022-08-01T02:50:02;19.50;99.90
7196;DHT22;3639;51.308;5.624;2022-08-01T02:52:28;19.50;99.90
7196;DHT22;3639;51.308;5.624;2022-08-01T02:54:56;19.50;99.90
7196;DHT22;3639;51.308;5.624;2022-08-01T02:57:23;19.40;99.90
7196;DHT22;3639;51.308;5.624;2022-08-01T02:59:50;19.50;99.90
7196;DHT22;3639;51.308;5.624;2022-08-01T03:02:19;19.50;99.90
7196;DHT22;3639;51.308;5.624;2022-08-01T03:04:47;19.50;99.90
7196;DHT22;3639;51.308;5.624;2022-08-01T03:07:14;19.50;99.90
7196;DHT22;3639;51.308;5.624;2022-08-01T03:09:45;19.50;99.90
7196;DHT22;3639;51.308;5.624;2022-08-01T03:12:20;19.50;99.90
7196;DHT22;3639;51.308;5.624;2022-08-01T03:14:48;19.50;99.90
7196;DHT22;3639;51.308;5.624;2022-08-01T03:17:15;19.40;99.90
7196;DHT22;3639;51.308;5.624;2022-08-01T03:19:45;19.50;99.90
7196;DHT22;3639;51.308;5.624;2022-08-01T03:22:12;19.50;99.90
7196;DHT22;3639;51.308;5.624;2022-08-01T03:24:41;19.40;99.90
7196;DHT22;3639;51.308;5.624;2022-08-01T03:27:09;19.50;99.90
7196;DHT22;3639;51.308;5.624;2022-08-01T03:29:36;19.40;99.90
7196;DHT22;3639;51.308;5.624;2022-08-01T03:32:03;19.50;99.90
7196;DHT22;3639;51.308;5.624;2022-08-01T03:34:30;19.50;99.90
7196;DHT22;3639;51.308;5.624;2022-08-01T03:37:02;19.50;99.90
7196;DHT22;3639;51.308;5.624;2022-08-01T03:39:33;19.50;99.90
7196;DHT22;3639;51.308;5.624;2022-08-01T03:42:05;19.50;99.90
7196;DHT22;3639;51.308;5.624;2022-08-01T03:44:33;19.50;99.90
7196;DHT22;3639;51.308;5.624;2022-08-01T03:47:06;19.50;99.90
7196;DHT22;3639;51.308;5.624;2022-08-01T03:49:36;19.50;99.90
7196;DHT22;3639;51.308;5.624;2022-08-01T03:52:06;19.50;99.90
7196;DHT22;3639;51.308;5.624;2022-08-01T03:54:36;19.50;99.90
7196;DHT22;3639;51.308;5.624;2022-08-01T03:57:07;19.50;99.90
7196;DHT22;3639;51.308;5.624;2022-08-01T03:59:35;19.50;99.90
7196;DHT22;3639;51.308;5.624;2022-08-01T04:02:02;19.50;99.90
7196;DHT22;3639;51.308;5.624;2022-08-01T04:04:29;19.50;99.90
7196;DHT22;3639;51.308;5.624;2022-08-01T04:06:55;19.50;99.90
7196;DHT22;3639;51.308;5.624;2022-08-01T04:09:21;19.40;99.90
7196;DHT22;3639;51.308;5.624;2022-08-01T04:11:48;19.50;99.90
7196;DHT22;3639;51.308;5.624;2022-08-01T04:14:14;19.50;99.90
7196;DHT22;3639;51.308;5.624;2022-08-01T04:16:40;19.50;99.90
7196;DHT22;3639;51.308;5.624;2022-08-01T04:19:06;19.50;99.90
7196;DHT22;3639;51.308;5.624;2022-08-01T04:21:34;19.50;99.90
7196;DHT22;3639;51.308;5.624;2022-08-01T04:24:07;19.40;99.90
7196;DHT22;3639;51.308;5.624;2022-08-01T04:26:37;19.50;99.90
7196;DHT22;3639;51.308;5.624;2022-08-01T04:29:04;19.50;99.90
7196;DHT22;3639;51.308;5.624;2022-08-01T04:31:32;19.50;99.90
7196;DHT22;3639;51.308;5.624;2022-08-01T04:34:01;19.50;99.90
7196;DHT22;3639;51.308;5.624;2022-08-01T04:36:29;19.50;99.90
7196;DHT22;3639;51.308;5.624;2022-08-01T04:38:59;19.40;99.90
7196;DHT22;3639;51.308;5.624;2022-08-01T04:41:26;19.40;99.90
7196;DHT22;3639;51.308;5.624;2022-08-01T04:43:52;19.40;99.90
7196;DHT22;3639;51.308;5.624;2022-08-01T04:46:20;19.50;99.90
7196;DHT22;3639;51.308;5.624;2022-08-01T04:48:47;19.50;99.90
7196;DHT22;3639;51.308;5.624;2022-08-01T04:51:15;19.50;99.90
7196;DHT22;3639;51.308;5.624;2022-08-01T04:53:44;19.50;99.90
7196;DHT22;3639;51.308;5.624;2022-08-01T04:56:12;19.40;99.90
7196;DHT22;3639;51.308;5.624;2022-08-01T04:58:40;19.50;99.90
7196;DHT22;3639;51.308;5.624;2022-08-01T05:01:06;19.50;99.90
7196;DHT22;3639;51.308;5.624;2022-08-01T05:03:32;19.50;99.90
7196;DHT22;3639;51.308;5.624;2022-08-01T05:05:59;19.50;99.90
7196;DHT22;3639;51.308;5.624;2022-08-01T05:08:25;19.50;99.90
7196;DHT22;3639;51.308;5.624;2022-08-01T05:10:51;19.50;99.90
7196;DHT22;3639;51.308;5.624;2022-08-01T05:13:18;19.50;99.90
7196;DHT22;3639;51.308;5.624;2022-08-01T05:15:44;19.60;99.90
7196;DHT22;3639;51.308;5.624;2022-08-01T05:18:10;19.60;99.90
7196;DHT22;3639;51.308;5.624;2022-08-01T05:20:37;19.60;99.90
7196;DHT22;3639;51.308;5.624;2022-08-01T05:23:04;19.60;99.90
7196;DHT22;3639;51.308;5.624;2022-08-01T05:25:30;19.60;99.90
7196;DHT22;3639;51.308;5.624;2022-08-01T05:27:55;19.70;99.90
7196;DHT22;3639;51.308;5.624;2022-08-01T05:30:21;19.70;99.90
7196;DHT22;3639;51.308;5.624;2022-08-01T05:32:47;19.60;99.90
7196;DHT22;3639;51.308;5.624;2022-08-01T05:35:13;19.70;99.90
7196;DHT22;3639;51.308;5.624;2022-08-01T05:37:39;19.70;99.90
7196;DHT22;3639;51.308;5.624;2022-08-01T05:40:06;19.70;99.90
7196;DHT22;3639;51.308;5.624;2022-08-01T05:42:33;19.70;99.90
7196;DHT22;3639;51.308;5.624;2022-08-01T05:45:00;19.80;99.90
7196;DHT22;3639;51.308;5.624;2022-08-01T05:47:26;19.80;99.90
7196;DHT22;3639;51.308;5.624;2022-08-01T05:49:52;19.90;99.90
7196;DHT22;3639;51.308;5.624;2022-08-01T05:52:18;19.90;99.90
7196;DHT22;3639;51.308;5.624;2022-08-01T05:54:44;20.00;99.90
7196;DHT22;3639;51.308;5.624;2022-08-01T05:57:10;20.00;99.90
7196;DHT22;3639;51.308;5.624;2022-08-01T05:59:37;20.10;99.90
7196;DHT22;3639;51.308;5.624;2022-08-01T06:02:03;20.10;99.90
7196;DHT22;3639;51.308;5.624;2022-08-01T06:04:29;20.10;99.90
7196;DHT22;3639;51.308;5.624;2022-08-01T06:06:55;20.20;99.90
7196;DHT22;3639;51.308;5.624;2022-08-01T06:09:20;20.20;99.90
7196;DHT22;3639;51.308;5.624;2022-08-01T06:11:46;20.20;99.90
7196;DHT22;3639;51.308;5.624;2022-08-01T06:14:13;20.30;99.90
7196;DHT22;3639;51.308;5.624;2022-08-01T06:16:39;20.30;99.90
7196;DHT22;3639;51.308;5.624;2022-08-01T06:19:05;20.40;99.90
7196;DHT22;3639;51.308;5.624;2022-08-01T06:21:31;20.60;99.90
7196;DHT22;3639;51.308;5.624;2022-08-01T06:23:57;20.60;99.90
7196;DHT22;3639;51.308;5.624;2022-08-01T06:26:24;20.60;99.90
7196;DHT22;3639;51.308;5.624;2022-08-01T06:28:50;20.70;99.90
7196;DHT22;3639;51.308;5.624;2022-08-01T06:31:16;20.70;99.90
7196;DHT22;3639;51.308;5.624;2022-08-01T06:33:42;20.80;99.90
7196;DHT22;3639;51.308;5.624;2022-08-01T06:36:08;20.80;99.90
7196;DHT22;3639;51.308;5.624;2022-08-01T06:38:35;20.90;99.90
7196;DHT22;3639;51.308;5.624;2022-08-01T06:41:01;21.00;99.90
7196;DHT22;3639;51.308;5.624;2022-08-01T06:43:28;21.10;99.90
7196;DHT22;3639;51.308;5.624;2022-08-01T06:45:55;21.20;99.90
7196;DHT22;3639;51.308;5.624;2022-08-01T06:48:23;21.20;99.90
7196;DHT22;3639;51.308;5.624;2022-08-01T06:50:49;21.30;99.90
7196;DHT22;3639;51.308;5.624;2022-08-01T06:53:34;21.30;99.90
7196;DHT22;3639;51.308;5.624;2022-08-01T06:56:00;21.30;99.90
7196;DHT22;3639;51.308;5.624;2022-08-01T06:58:26;21.20;99.90
7196;DHT22;3639;51.308;5.624;2022-08-01T07:00:52;21.20;99.90
7196;DHT22;3639;51.308;5.624;2022-08-01T07:03:18;21.20;99.90
7196;DHT22;3639;51.308;5.624;2022-08-01T07:05:45;21.40;99.90
7196;DHT22;3639;51.308;5.624;2022-08-01T07:08:10;21.40;99.90
7196;DHT22;3639;51.308;5.624;2022-08-01T07:10:36;21.50;99.90
7196;DHT22;3639;51.308;5.624;2022-08-01T07:13:03;21.50;99.90
7196;DHT22;3639;51.308;5.624;2022-08-01T07:15:31;21.70;99.90
7196;DHT22;3639;51.308;5.624;2022-08-01T07:17:57;21.90;99.90
7196;DHT22;3639;51.308;5.624;2022-08-01T07:20:30;22.00;99.90
7196;DHT22;3639;51.308;5.624;2022-08-01T07:22:56;22.10;99.90
7196;DHT22;3639;51.308;5.624;2022-08-01T07:25:23;22.10;99.90
7196;DHT22;3639;51.308;5.624;2022-08-01T07:27:50;22.10;99.90
7196;DHT22;3639;51.308;5.624;2022-08-01T07:30:16;22.20;99.90
7196;DHT22;3639;51.308;5.624;2022-08-01T07:32:42;22.50;99.90
7196;DHT22;3639;51.308;5.624;2022-08-01T07:35:08;22.70;99.90
7196;DHT22;3639;51.308;5.624;2022-08-01T07:37:34;23.00;99.90
7196;DHT22;3639;51.308;5.624;2022-08-01T07:40:00;23.30;99.90
7196;DHT22;3639;51.308;5.624;2022-08-01T07:42:26;23.50;99.90
7196;DHT22;3639;51.308;5.624;2022-08-01T07:44:52;23.40;99.90
7196;DHT22;3639;51.308;5.624;2022-08-01T07:47:24;23.20;99.90
7196;DHT22;3639;51.308;5.624;2022-08-01T07:49:50;23.00;99.90
7196;DHT22;3639;51.308;5.624;2022-08-01T07:52:16;22.80;99.90
7196;DHT22;3639;51.308;5.624;2022-08-01T07:54:42;22.70;99.90
7196;DHT22;3639;51.308;5.624;2022-08-01T07:57:08;22.50;99.90
7196;DHT22;3639;51.308;5.624;2022-08-01T07:59:34;22.40;99.90
7196;DHT22;3639;51.308;5.624;2022-08-01T08:02:00;22.30;99.90
7196;DHT22;3639;51.308;5.624;2022-08-01T08:04:27;22.30;99.90
7196;DHT22;3639;51.308;5.624;2022-08-01T08:06:53;22.60;99.90
7196;DHT22;3639;51.308;5.624;2022-08-01T08:09:19;23.00;99.90
7196;DHT22;3639;51.308;5.624;2022-08-01T08:11:46;23.40;99.90
7196;DHT22;3639;51.308;5.624;2022-08-01T08:14:12;23.50;99.90
7196;DHT22;3639;51.308;5.624;2022-08-01T08:16:38;23.50;99.90
7196;DHT22;3639;51.308;5.624;2022-08-01T08:19:04;23.30;99.90
7196;DHT22;3639;51.308;5.624;2022-08-01T08:21:30;23.20;99.90
7196;DHT22;3639;51.308;5.624;2022-08-01T08:23:56;23.30;99.90
7196;DHT22;3639;51.308;5.624;2022-08-01T08:26:41;23.40;99.90
7196;DHT22;3639;51.308;5.624;2022-08-01T08:29:06;23.70;99.90
7196;DHT22;3639;51.308;5.624;2022-08-01T08:31:33;23.80;99.90
7196;DHT22;3639;51.308;5.624;2022-08-01T08:33:59;23.90;99.90
7196;DHT22;3639;51.308;5.624;2022-08-01T08:36:24;23.60;99.90
7196;DHT22;3639;51.308;5.624;2022-08-01T08:38:50;23.60;99.90
7196;DHT22;3639;51.308;5.624;2022-08-01T08:41:16;23.50;99.90
7196;DHT22;3639;51.308;5.624;2022-08-01T08:43:42;23.30;99.90
7196;DHT22;3639;51.308;5.624;2022-08-01T08:46:09;23.20;99.90
7196;DHT22;3639;51.308;5.624;2022-08-01T08:48:39;23.60;99.90
7196;DHT22;3639;51.308;5.624;2022-08-01T08:51:05;23.80;99.90
7196;DHT22;3639;51.308;5.624;2022-08-01T08:53:32;24.30;99.90
7196;DHT22;3639;51.308;5.624;2022-08-01T08:55:59;24.60;99.90
7196;DHT22;3639;51.308;5.624;2022-08-01T08:58:26;24.40;99.90
7196;DHT22;3639;51.308;5.624;2022-08-01T09:00:54;24.50;99.90
7196;DHT22;3639;51.308;5.624;2022-08-01T09:03:20;24.30;99.90
7196;DHT22;3639;51.308;5.624;2022-08-01T09:05:46;24.10;99.90
7196;DHT22;3639;51.308;5.624;2022-08-01T09:08:12;23.90;99.90
7196;DHT22;3639;51.308;5.624;2022-08-01T09:10:38;24.00;99.90
7196;DHT22;3639;51.308;5.624;2022-08-01T09:15:44;24.30;99.90
7196;DHT22;3639;51.308;5.624;2022-08-01T09:21:18;24.40;99.90
7196;DHT22;3639;51.308;5.624;2022-08-01T09:23:52;24.40;99.90
7196;DHT22;3639;51.308;5.624;2022-08-01T09:26:34;24.40;99.90
7196;DHT22;3639;51.308;5.624;2022-08-01T09:29:03;24.50;99.90
7196;DHT22;3639;51.308;5.624;2022-08-01T09:31:29;24.70;99.90
7196;DHT22;3639;51.308;5.624;2022-08-01T09:33:57;24.70;99.90
7196;DHT22;3639;51.308;5.624;2022-08-01T09:36:26;25.00;99.90
7196;DHT22;3639;51.308;5.624;2022-08-01T09:38:54;25.30;99.90
7196;DHT22;3639;51.308;5.624;2022-08-01T09:41:32;25.30;99.90
7196;DHT22;3639;51.308;5.624;2022-08-01T09:43:58;25.40;99.90
7196;DHT22;3639;51.308;5.624;2022-08-01T09:46:25;25.40;99.90
7196;DHT22;3639;51.308;5.624;2022-08-01T09:51:36;25.20;99.90
7196;DHT22;3639;51.308;5.624;2022-08-01T09:54:04;25.00;99.90
7196;DHT22;3639;51.308;5.624;2022-08-01T09:56:38;24.80;99.90
7196;DHT22;3639;51.308;5.624;2022-08-01T09:59:05;24.50;99.90
7196;DHT22;3639;51.308;5.624;2022-08-01T10:01:49;24.40;99.90
7196;DHT22;3639;51.308;5.624;2022-08-01T10:04:19;24.50;99.90
7196;DHT22;3639;51.308;5.624;2022-08-01T10:06:50;24.70;99.90
7196;DHT22;3639;51.308;5.624;2022-08-01T10:09:30;25.00;99.90
7196;DHT22;3639;51.308;5.624;2022-08-01T10:11:58;25.20;99.90
7196;DHT22;3639;51.308;5.624;2022-08-01T10:14:25;25.50;99.90
7196;DHT22;3639;51.308;5.624;2022-08-01T10:16:53;25.70;99.90
7196;DHT22;3639;51.308;5.624;2022-08-01T10:19:22;25.70;99.90
7196;DHT22;3639;51.308;5.624;2022-08-01T10:21:51;25.90;99.90
7196;DHT22;3639;51.308;5.624;2022-08-01T10:24:20;26.00;99.90
7196;DHT22;3639;51.308;5.624;2022-08-01T10:26:59;26.20;99.90
7196;DHT22;3639;51.308;5.624;2022-08-01T10:29:41;26.50;99.90
7196;DHT22;3639;51.308;5.624;2022-08-01T10:32:08;26.50;99.90
7196;DHT22;3639;51.308;5.624;2022-08-01T10:34:36;26.60;99.90
7196;DHT22;3639;51.308;5.624;2022-08-01T10:37:04;26.50;99.90
7196;DHT22;3639;51.308;5.624;2022-08-01T10:39:33;26.40;99.90
7196;DHT22;3639;51.308;5.624;2022-08-01T10:42:00;26.20;99.90
7196;DHT22;3639;51.308;5.624;2022-08-01T10:44:28;26.10;99.90
7196;DHT22;3639;51.308;5.624;2022-08-01T10:46:59;26.00;99.90
7196;DHT22;3639;51.308;5.624;2022-08-01T10:49:30;26.10;99.90
7196;DHT22;3639;51.308;5.624;2022-08-01T10:51:57;26.30;99.80
7196;DHT22;3639;51.308;5.624;2022-08-01T10:54:26;26.50;99.90
7196;DHT22;3639;51.308;5.624;2022-08-01T10:56:53;26.70;99.10
7196;DHT22;3639;51.308;5.624;2022-08-01T10:59:27;26.70;97.30
7196;DHT22;3639;51.308;5.624;2022-08-01T11:02:04;26.40;97.70
7196;DHT22;3639;51.308;5.624;2022-08-01T11:07:55;26.30;98.90
7196;DHT22;3639;51.308;5.624;2022-08-01T11:10:39;26.50;98.40
7196;DHT22;3639;51.308;5.624;2022-08-01T11:13:06;26.50;98.10
7196;DHT22;3639;51.308;5.624;2022-08-01T11:15:37;26.60;97.90
7196;DHT22;3639;51.308;5.624;2022-08-01T11:18:49;26.60;97.80
7196;DHT22;3639;51.308;5.624;2022-08-01T11:21:15;26.70;97.80
7196;DHT22;3639;51.308;5.624;2022-08-01T11:23:49;26.80;97.40
7196;DHT22;3639;51.308;5.624;2022-08-01T11:26:17;26.70;96.70
7196;DHT22;3639;51.308;5.624;2022-08-01T11:28:45;26.50;97.80
7196;DHT22;3639;51.308;5.624;2022-08-01T11:38:45;26.70;96.50
7196;DHT22;3639;51.308;5.624;2022-08-01T11:44:15;26.80;96.80
7196;DHT22;3639;51.308;5.624;2022-08-01T11:52:23;26.70;97.90
7196;DHT22;3639;51.308;5.624;2022-08-01T11:54:58;26.50;98.00
7196;DHT22;3639;51.308;5.624;2022-08-01T11:57:32;26.20;99.60
7196;DHT22;3639;51.308;5.624;2022-08-01T12:02:35;25.60;99.90
7196;DHT22;3639;51.308;5.624;2022-08-01T12:05:04;25.60;99.90
7196;DHT22;3639;51.308;5.624;2022-08-01T12:07:31;25.50;99.90
7196;DHT22;3639;51.308;5.624;2022-08-01T12:12:28;25.30;99.90
7196;DHT22;3639;51.308;5.624;2022-08-01T12:14:56;25.30;99.90
7196;DHT22;3639;51.308;5.624;2022-08-01T12:17:40;25.10;99.90
7196;DHT22;3639;51.308;5.624;2022-08-01T12:20:27;25.00;99.90
7196;DHT22;3639;51.308;5.624;2022-08-01T12:22:55;25.00;99.90
7196;DHT22;3639;51.308;5.624;2022-08-01T12:25:21;25.00;99.90
7196;DHT22;3639;51.308;5.624;2022-08-01T12:27:48;25.30;99.90
7196;DHT22;3639;51.308;5.624;2022-08-01T12:30:17;25.60;99.90
7196;DHT22;3639;51.308;5.624;2022-08-01T12:32:49;25.70;99.90
7196;DHT22;3639;51.308;5.624;2022-08-01T12:37:50;25.60;99.90
7196;DHT22;3639;51.308;5.624;2022-08-01T12:40:30;25.50;99.90
7196;DHT22;3639;51.308;5.624;2022-08-01T12:42:58;25.30;99.90
7196;DHT22;3639;51.308;5.624;2022-08-01T12:45:27;25.30;99.90
7196;DHT22;3639;51.308;5.624;2022-08-01T12:47:54;25.40;99.90
7196;DHT22;3639;51.308;5.624;2022-08-01T12:50:24;25.60;99.90
7196;DHT22;3639;51.308;5.624;2022-08-01T12:52:51;25.90;99.90
7196;DHT22;3639;51.308;5.624;2022-08-01T12:55:19;26.20;99.90
7196;DHT22;3639;51.308;5.624;2022-08-01T12:57:50;26.20;99.90
7196;DHT22;3639;51.308;5.624;2022-08-01T13:00:22;26.10;99.90
7196;DHT22;3639;51.308;5.624;2022-08-01T13:02:59;26.10;99.90
7196;DHT22;3639;51.308;5.624;2022-08-01T13:05:26;26.20;99.90
7196;DHT22;3639;51.308;5.624;2022-08-01T13:07:53;26.20;99.80
7196;DHT22;3639;51.308;5.624;2022-08-01T13:10:29;26.00;99.50
7196;DHT22;3639;51.308;5.624;2022-08-01T13:12:58;25.80;99.90
7196;DHT22;3639;51.308;5.624;2022-08-01T13:15:31;25.60;99.90
7196;DHT22;3639;51.308;5.624;2022-08-01T13:17:59;25.60;99.90
7196;DHT22;3639;51.308;5.624;2022-08-01T13:20:30;25.30;99.90
7196;DHT22;3639;51.308;5.624;2022-08-01T13:25:49;25.10;99.90
7196;DHT22;3639;51.308;5.624;2022-08-01T13:28:17;25.30;99.90
7196;DHT22;3639;51.308;5.624;2022-08-01T13:31:15;25.40;99.70
7196;DHT22;3639;51.308;5.624;2022-08-01T13:33:43;25.40;99.90
7196;DHT22;3639;51.308;5.624;2022-08-01T13:36:10;25.40;99.90
7196;DHT22;3639;51.308;5.624;2022-08-01T13:38:36;25.30;99.60
7196;DHT22;3639;51.308;5.624;2022-08-01T13:41:21;25.50;99.80
7196;DHT22;3639;51.308;5.624;2022-08-01T13:43:48;25.50;99.60
7196;DHT22;3639;51.308;5.624;2022-08-01T13:46:15;25.50;99.90
7196;DHT22;3639;51.308;5.624;2022-08-01T13:48:41;25.30;99.80
7196;DHT22;3639;51.308;5.624;2022-08-01T13:51:06;25.40;99.90
7196;DHT22;3639;51.308;5.624;2022-08-01T13:53:32;25.30;99.90
7196;DHT22;3639;51.308;5.624;2022-08-01T13:55:58;25.30;99.90
7196;DHT22;3639;51.308;5.624;2022-08-01T13:58:25;25.30;99.90
7196;DHT22;3639;51.308;5.624;2022-08-01T14:00:51;25.20;99.80
7196;DHT22;3639;51.308;5.624;2022-08-01T14:03:18;25.20;99.90
7196;DHT22;3639;51.308;5.624;2022-08-01T14:05:45;25.20;99.20
7196;DHT22;3639;51.308;5.624;2022-08-01T14:08:12;25.20;98.80
7196;DHT22;3639;51.308;5.624;2022-08-01T14:10:38;25.20;98.80
7196;DHT22;3639;51.308;5.624;2022-08-01T14:13:04;25.00;99.50
7196;DHT22;3639;51.308;5.624;2022-08-01T14:15:31;25.00;99.60
7196;DHT22;3639;51.308;5.624;2022-08-01T14:17:57;25.00;99.90
7196;DHT22;3639;51.308;5.624;2022-08-01T14:20:23;25.00;99.40
7196;DHT22;3639;51.308;5.624;2022-08-01T14:22:49;24.80;99.40
7196;DHT22;3639;51.308;5.624;2022-08-01T14:25:16;24.70;99.90
7196;DHT22;3639;51.308;5.624;2022-08-01T14:27:44;24.60;99.80
7196;DHT22;3639;51.308;5.624;2022-08-01T14:30:11;24.70;99.50
7196;DHT22;3639;51.308;5.624;2022-08-01T14:32:37;24.80;99.60
7196;DHT22;3639;51.308;5.624;2022-08-01T14:35:05;24.80;99.90
7196;DHT22;3639;51.308;5.624;2022-08-01T14:37:32;25.00;99.90
7196;DHT22;3639;51.308;5.624;2022-08-01T14:39:59;25.00;99.60
7196;DHT22;3639;51.308;5.624;2022-08-01T14:42:30;25.20;99.10
7196;DHT22;3639;51.308;5.624;2022-08-01T14:44:56;25.20;99.30
7196;DHT22;3639;51.308;5.624;2022-08-01T14:47:22;25.30;98.80
7196;DHT22;3639;51.308;5.624;2022-08-01T14:49:49;25.30;98.80
7196;DHT22;3639;51.308;5.624;2022-08-01T14:52:15;25.20;97.70
7196;DHT22;3639;51.308;5.624;2022-08-01T14:54:41;25.00;98.80
7196;DHT22;3639;51.308;5.624;2022-08-01T14:57:07;25.00;99.00
7196;DHT22;3639;51.308;5.624;2022-08-01T14:59:33;25.00;99.50
7196;DHT22;3639;51.308;5.624;2022-08-01T15:02:00;25.00;99.10
7196;DHT22;3639;51.308;5.624;2022-08-01T15:04:26;25.00;98.60
7196;DHT22;3639;51.308;5.624;2022-08-01T15:06:52;24.90;98.80
7196;DHT22;3639;51.308;5.624;2022-08-01T15:09:18;25.00;98.40
7196;DHT22;3639;51.308;5.624;2022-08-01T15:11:44;25.10;98.60
7196;DHT22;3639;51.308;5.624;2022-08-01T15:14:11;25.10;98.60
7196;DHT22;3639;51.308;5.624;2022-08-01T15:16:56;25.00;98.40
7196;DHT22;3639;51.308;5.624;2022-08-01T15:19:21;24.80;98.20
7196;DHT22;3639;51.308;5.624;2022-08-01T15:21:47;24.80;98.90
7196;DHT22;3639;51.308;5.624;2022-08-01T15:24:13;24.80;98.70
7196;DHT22;3639;51.308;5.624;2022-08-01T15:26:39;25.00;98.00
7196;DHT22;3639;51.308;5.624;2022-08-01T15:29:05;24.90;97.90
7196;DHT22;3639;51.308;5.624;2022-08-01T15:31:31;24.80;98.60
7196;DHT22;3639;51.308;5.624;2022-08-01T15:33:57;24.90;98.30
7196;DHT22;3639;51.308;5.624;2022-08-01T15:36:23;24.90;98.40
7196;DHT22;3639;51.308;5.624;2022-08-01T15:38:49;24.80;98.20
7196;DHT22;3639;51.308;5.624;2022-08-01T15:41:15;24.60;98.10
7196;DHT22;3639;51.308;5.624;2022-08-01T15:43:41;24.50;98.50
7196;DHT22;3639;51.308;5.624;2022-08-01T15:46:07;24.50;98.60
7196;DHT22;3639;51.308;5.624;2022-08-01T15:48:33;24.60;98.30
7196;DHT22;3639;51.308;5.624;2022-08-01T15:50:58;24.60;98.20
7196;DHT22;3639;51.308;5.624;2022-08-01T15:53:24;24.50;97.90
7196;DHT22;3639;51.308;5.624;2022-08-01T15:55:50;24.40;98.40
7196;DHT22;3639;51.308;5.624;2022-08-01T15:58:16;24.50;98.40
7196;DHT22;3639;51.308;5.624;2022-08-01T16:00:42;24.50;98.00
7196;DHT22;3639;51.308;5.624;2022-08-01T16:03:08;24.50;98.10
7196;DHT22;3639;51.308;5.624;2022-08-01T16:05:35;24.50;97.70
7196;DHT22;3639;51.308;5.624;2022-08-01T16:08:01;24.40;97.70
7196;DHT22;3639;51.308;5.624;2022-08-01T16:10:28;24.30;98.40
7196;DHT22;3639;51.308;5.624;2022-08-01T16:12:55;24.30;98.40
7196;DHT22;3639;51.308;5.624;2022-08-01T16:15:21;24.40;98.30
7196;DHT22;3639;51.308;5.624;2022-08-01T16:17:46;24.50;97.60
7196;DHT22;3639;51.308;5.624;2022-08-01T16:20:12;24.70;97.30
7196;DHT22;3639;51.308;5.624;2022-08-01T16:22:39;24.70;97.40
7196;DHT22;3639;51.308;5.624;2022-08-01T16:25:05;24.60;97.20
7196;DHT22;3639;51.308;5.624;2022-08-01T16:27:31;24.60;97.00
7196;DHT22;3639;51.308;5.624;2022-08-01T16:29:57;24.60;97.10
7196;DHT22;3639;51.308;5.624;2022-08-01T16:32:23;24.60;96.40
7196;DHT22;3639;51.308;5.624;2022-08-01T16:34:49;24.50;96.50
7196;DHT22;3639;51.308;5.624;2022-08-01T16:37:15;24.50;96.30
7196;DHT22;3639;51.308;5.624;2022-08-01T16:39:41;24.60;96.00
7196;DHT22;3639;51.308;5.624;2022-08-01T16:42:06;24.60;96.20
7196;DHT22;3639;51.308;5.624;2022-08-01T16:44:33;24.50;96.20
7196;DHT22;3639;51.308;5.624;2022-08-01T16:46:59;24.40;95.40
7196;DHT22;3639;51.308;5.624;2022-08-01T16:49:25;24.30;96.20
7196;DHT22;3639;51.308;5.624;2022-08-01T16:51:51;24.30;96.30
7196;DHT22;3639;51.308;5.624;2022-08-01T16:54:17;24.20;96.30
7196;DHT22;3639;51.308;5.624;2022-08-01T16:56:43;24.20;96.20
7196;DHT22;3639;51.308;5.624;2022-08-01T16:59:08;24.20;96.50